sensor_id;sensor_type;location;lat;lon;timestamp;temperature;humidity
46652;DHT22;32377;52.182;5.398;2022-10-16T00:00:53;12.50;99.90
46652;DHT22;32377;52.182;5.398;2022-10-16T00:03:19;12.50;99.90
46652;DHT22;32377;52.182;5.398;2022-10-16T00:05:45;12.60;99.90
46652;DHT22;32377;52.182;5.398;2022-10-16T00:08:11;12.60;99.90
46652;DHT22;32377;52.182;5.398;2022-10-16T00:10:37;12.60;99.90
46652;DHT22;32377;52.182;5.398;2022-10-16T00:13:04;12.60;99.90
46652;DHT22;32377;52.182;5.398;2022-10-16T00:15:30;12.60;99.90
46652;DHT22;32377;52.182;5.398;2022-10-16T00:17:56;12.60;99.90
46652;DHT22;32377;52.182;5.398;2022-10-16T00:20:21;12.60;99.90
46652;DHT22;32377;52.182;5.398;2022-10-16T00:22:47;12.60;99.90
46652;DHT22;32377;52.182;5.398;2022-10-16T00:25:12;12.50;99.90
46652;DHT22;32377;52.182;5.398;2022-10-16T00:27:38;12.50;99.90
46652;DHT22;32377;52.182;5.398;2022-10-16T00:30:04;12.50;99.90
46652;DHT22;32377;52.182;5.398;2022-10-16T00:32:30;12.50;99.90
46652;DHT22;32377;52.182;5.398;2022-10-16T00:34:55;12.50;99.90
46652;DHT22;32377;52.182;5.398;2022-10-16T00:37:21;12.50;99.90
46652;DHT22;32377;52.182;5.398;2022-10-16T00:39:47;12.50;99.90
46652;DHT22;32377;52.182;5.398;2022-10-16T00:42:17;12.50;99.90
46652;DHT22;32377;52.182;5.398;2022-10-16T00:44:56;12.50;99.90
46652;DHT22;32377;52.182;5.398;2022-10-16T00:49:56;12.50;99.90
46652;DHT22;32377;52.182;5.398;2022-10-16T00:52:23;12.50;99.90
46652;DHT22;32377;52.182;5.398;2022-10-16T00:54:50;12.50;99.90
46652;DHT22;32377;52.182;5.398;2022-10-16T00:57:17;12.50;99.90
46652;DHT22;32377;52.182;5.398;2022-10-16T00:59:43;12.60;99.90
46652;DHT22;32377;52.182;5.398;2022-10-16T01:02:13;12.60;99.90
46652;DHT22;32377;52.182;5.398;2022-10-16T01:04:41;12.70;99.90
46652;DHT22;32377;52.182;5.398;2022-10-16T01:07:36;12.70;99.90
46652;DHT22;32377;52.182;5.398;2022-10-16T01:12:51;12.90;99.90
46652;DHT22;32377;52.182;5.398;2022-10-16T01:15:52;12.90;99.90
46652;DHT22;32377;52.182;5.398;2022-10-16T01:18:42;13.00;99.90
46652;DHT22;32377;52.182;5.398;2022-10-16T01:21:11;13.00;99.90
46652;DHT22;32377;52.182;5.398;2022-10-16T01:24:08;13.00;99.90
46652;DHT22;32377;52.182;5.398;2022-10-16T01:30:17;13.10;99.90
46652;DHT22;32377;52.182;5.398;2022-10-16T01:32:54;13.20;99.90
46652;DHT22;32377;52.182;5.398;2022-10-16T01:35:30;13.10;99.90
46652;DHT22;32377;52.182;5.398;2022-10-16T01:40:29;13.00;99.90
46652;DHT22;32377;52.182;5.398;2022-10-16T01:43:00;13.00;99.90
46652;DHT22;32377;52.182;5.398;2022-10-16T01:45:28;13.00;99.90
46652;DHT22;32377;52.182;5.398;2022-10-16T01:47:55;13.10;99.90
46652;DHT22;32377;52.182;5.398;2022-10-16T01:50:21;13.00;99.90
46652;DHT22;32377;52.182;5.398;2022-10-16T01:52:50;13.00;99.90
46652;DHT22;32377;52.182;5.398;2022-10-16T01:55:22;13.10;99.90
46652;DHT22;32377;52.182;5.398;2022-10-16T01:57:50;13.10;99.90
46652;DHT22;32377;52.182;5.398;2022-10-16T02:00:19;13.10;99.90
46652;DHT22;32377;52.182;5.398;2022-10-16T02:02:48;13.20;99.90
46652;DHT22;32377;52.182;5.398;2022-10-16T02:05:26;13.20;99.90
46652;DHT22;32377;52.182;5.398;2022-10-16T02:07:53;13.10;99.90
46652;DHT22;32377;52.182;5.398;2022-10-16T02:10:19;13.10;99.90
46652;DHT22;32377;52.182;5.398;2022-10-16T02:12:50;13.10;99.90
46652;DHT22;32377;52.182;5.398;2022-10-16T02:15:19;13.10;99.90
46652;DHT22;32377;52.182;5.398;2022-10-16T02:17:44;13.10;99.90
46652;DHT22;32377;52.182;5.398;2022-10-16T02:20:11;13.00;99.90
46652;DHT22;32377;52.182;5.398;2022-10-16T02:22:42;13.00;99.90
46652;DHT22;32377;52.182;5.398;2022-10-16T02:25:13;13.00;99.90
46652;DHT22;32377;52.182;5.398;2022-10-16T02:27:55;13.00;99.90
46652;DHT22;32377;52.182;5.398;2022-10-16T02:30:46;13.00;99.90
46652;DHT22;32377;52.182;5.398;2022-10-16T02:33:14;13.00;99.90
46652;DHT22;32377;52.182;5.398;2022-10-16T02:35:41;12.90;99.90
46652;DHT22;32377;52.182;5.398;2022-10-16T02:38:09;12.90;99.90
46652;DHT22;32377;52.182;5.398;2022-10-16T02:40:34;12.90;99.90
46652;DHT22;32377;52.182;5.398;2022-10-16T02:43:03;12.80;99.90
46652;DHT22;32377;52.182;5.398;2022-10-16T02:45:29;12.80;99.90
46652;DHT22;32377;52.182;5.398;2022-10-16T02:47:54;12.80;99.90
46652;DHT22;32377;52.182;5.398;2022-10-16T02:50:20;12.80;99.90
46652;DHT22;32377;52.182;5.398;2022-10-16T02:52:46;12.70;99.90
46652;DHT22;32377;52.182;5.398;2022-10-16T02:55:12;12.70;99.90
46652;DHT22;32377;52.182;5.398;2022-10-16T02:57:37;12.70;99.90
46652;DHT22;32377;52.182;5.398;2022-10-16T03:00:06;12.70;99.90
46652;DHT22;32377;52.182;5.398;2022-10-16T03:02:32;12.70;99.90
46652;DHT22;32377;52.182;5.398;2022-10-16T03:04:58;12.80;99.90
46652;DHT22;32377;52.182;5.398;2022-10-16T03:07:23;12.70;99.90
46652;DHT22;32377;52.182;5.398;2022-10-16T03:09:49;12.70;99.90
46652;DHT22;32377;52.182;5.398;2022-10-16T03:12:14;12.80;99.90
46652;DHT22;32377;52.182;5.398;2022-10-16T03:14:40;12.70;99.90
46652;DHT22;32377;52.182;5.398;2022-10-16T03:17:06;12.80;99.90
46652;DHT22;32377;52.182;5.398;2022-10-16T03:19:31;12.80;99.90
46652;DHT22;32377;52.182;5.398;2022-10-16T03:21:57;12.80;99.90
46652;DHT22;32377;52.182;5.398;2022-10-16T03:24:22;12.80;99.90
46652;DHT22;32377;52.182;5.398;2022-10-16T03:26:48;12.70;99.90
46652;DHT22;32377;52.182;5.398;2022-10-16T03:29:14;12.70;99.90
46652;DHT22;32377;52.182;5.398;2022-10-16T03:31:39;12.60;99.90
46652;DHT22;32377;52.182;5.398;2022-10-16T03:34:05;12.60;99.90
46652;DHT22;32377;52.182;5.398;2022-10-16T03:36:31;12.60;99.90
46652;DHT22;32377;52.182;5.398;2022-10-16T03:38:56;12.60;99.90
46652;DHT22;32377;52.182;5.398;2022-10-16T03:41:22;12.60;99.90
46652;DHT22;32377;52.182;5.398;2022-10-16T03:43:47;12.50;99.90
46652;DHT22;32377;52.182;5.398;2022-10-16T03:46:13;12.50;99.90
46652;DHT22;32377;52.182;5.398;2022-10-16T03:48:39;12.50;99.90
46652;DHT22;32377;52.182;5.398;2022-10-16T03:51:05;12.50;99.90
46652;DHT22;32377;52.182;5.398;2022-10-16T03:53:31;12.50;99.90
46652;DHT22;32377;52.182;5.398;2022-10-16T03:55:56;12.50;99.90
46652;DHT22;32377;52.182;5.398;2022-10-16T03:58:22;12.40;99.90
46652;DHT22;32377;52.182;5.398;2022-10-16T04:00:48;12.40;99.90
46652;DHT22;32377;52.182;5.398;2022-10-16T04:03:14;12.40;99.90
46652;DHT22;32377;52.182;5.398;2022-10-16T04:05:39;12.40;99.90
46652;DHT22;32377;52.182;5.398;2022-10-16T04:08:05;12.40;99.90
46652;DHT22;32377;52.182;5.398;2022-10-16T04:10:31;12.50;99.90
46652;DHT22;32377;52.182;5.398;2022-10-16T04:12:56;12.50;99.90
46652;DHT22;32377;52.182;5.398;2022-10-16T04:15:23;12.50;99.90
46652;DHT22;32377;52.182;5.398;2022-10-16T04:17:50;12.50;99.90
46652;DHT22;32377;52.182;5.398;2022-10-16T04:20:16;12.50;99.90
46652;DHT22;32377;52.182;5.398;2022-10-16T04:22:41;12.50;99.90
46652;DHT22;32377;52.182;5.398;2022-10-16T04:25:07;12.50;99.90
46652;DHT22;32377;52.182;5.398;2022-10-16T04:27:33;12.50;99.90
46652;DHT22;32377;52.182;5.398;2022-10-16T04:29:59;12.50;99.90
46652;DHT22;32377;52.182;5.398;2022-10-16T04:32:25;12.50;99.90
46652;DHT22;32377;52.182;5.398;2022-10-16T04:34:51;12.50;99.90
46652;DHT22;32377;52.182;5.398;2022-10-16T04:37:16;12.50;99.90
46652;DHT22;32377;52.182;5.398;2022-10-16T04:39:42;12.50;99.90
46652;DHT22;32377;52.182;5.398;2022-10-16T04:42:07;12.50;99.90
46652;DHT22;32377;52.182;5.398;2022-10-16T04:44:33;12.40;99.90
46652;DHT22;32377;52.182;5.398;2022-10-16T04:46:59;12.40;99.90
46652;DHT22;32377;52.182;5.398;2022-10-16T04:49:24;12.50;99.90
46652;DHT22;32377;52.182;5.398;2022-10-16T04:51:50;12.40;99.90
46652;DHT22;32377;52.182;5.398;2022-10-16T04:54:15;12.40;99.90
46652;DHT22;32377;52.182;5.398;2022-10-16T04:56:41;12.40;99.90
46652;DHT22;32377;52.182;5.398;2022-10-16T04:59:14;12.40;99.90
46652;DHT22;32377;52.182;5.398;2022-10-16T05:01:40;12.40;99.90
46652;DHT22;32377;52.182;5.398;2022-10-16T05:04:06;12.30;99.90
46652;DHT22;32377;52.182;5.398;2022-10-16T05:06:31;12.30;99.90
46652;DHT22;32377;52.182;5.398;2022-10-16T05:08:57;12.30;99.90
46652;DHT22;32377;52.182;5.398;2022-10-16T05:11:23;12.30;99.90
46652;DHT22;32377;52.182;5.398;2022-10-16T05:13:48;12.20;99.90
46652;DHT22;32377;52.182;5.398;2022-10-16T05:16:14;12.30;99.90
46652;DHT22;32377;52.182;5.398;2022-10-16T05:18:43;12.20;99.90
46652;DHT22;32377;52.182;5.398;2022-10-16T05:21:08;12.30;99.90
46652;DHT22;32377;52.182;5.398;2022-10-16T05:23:34;12.30;99.90
46652;DHT22;32377;52.182;5.398;2022-10-16T05:26:00;12.30;99.90
46652;DHT22;32377;52.182;5.398;2022-10-16T05:28:27;12.30;99.90
46652;DHT22;32377;52.182;5.398;2022-10-16T05:30:54;12.30;99.90
46652;DHT22;32377;52.182;5.398;2022-10-16T05:33:21;12.30;99.90
46652;DHT22;32377;52.182;5.398;2022-10-16T05:35:47;12.30;99.90
46652;DHT22;32377;52.182;5.398;2022-10-16T05:38:12;12.30;99.90
46652;DHT22;32377;52.182;5.398;2022-10-16T05:40:38;12.30;99.90
46652;DHT22;32377;52.182;5.398;2022-10-16T05:43:03;12.30;99.90
46652;DHT22;32377;52.182;5.398;2022-10-16T05:45:29;12.20;99.90
46652;DHT22;32377;52.182;5.398;2022-10-16T05:47:55;12.20;99.90
46652;DHT22;32377;52.182;5.398;2022-10-16T05:50:21;12.20;99.90
46652;DHT22;32377;52.182;5.398;2022-10-16T05:52:46;12.20;99.90
46652;DHT22;32377;52.182;5.398;2022-10-16T05:55:12;12.30;99.90
46652;DHT22;32377;52.182;5.398;2022-10-16T05:57:37;12.30;99.90
46652;DHT22;32377;52.182;5.398;2022-10-16T06:00:04;12.30;99.90
46652;DHT22;32377;52.182;5.398;2022-10-16T06:02:30;12.30;99.90
46652;DHT22;32377;52.182;5.398;2022-10-16T06:04:56;12.40;99.90
46652;DHT22;32377;52.182;5.398;2022-10-16T06:07:22;12.30;99.90
46652;DHT22;32377;52.182;5.398;2022-10-16T06:09:52;12.40;99.90
46652;DHT22;32377;52.182;5.398;2022-10-16T06:12:18;12.40;99.90
46652;DHT22;32377;52.182;5.398;2022-10-16T06:14:45;12.40;99.90
46652;DHT22;32377;52.182;5.398;2022-10-16T06:17:10;12.40;99.90
46652;DHT22;32377;52.182;5.398;2022-10-16T06:19:36;12.40;99.90
46652;DHT22;32377;52.182;5.398;2022-10-16T06:22:04;12.40;99.90
46652;DHT22;32377;52.182;5.398;2022-10-16T06:24:29;12.40;99.90
46652;DHT22;32377;52.182;5.398;2022-10-16T06:26:55;12.40;99.90
46652;DHT22;32377;52.182;5.398;2022-10-16T06:29:21;12.40;99.90
46652;DHT22;32377;52.182;5.398;2022-10-16T06:31:46;12.40;99.90
46652;DHT22;32377;52.182;5.398;2022-10-16T06:34:12;12.50;99.90
46652;DHT22;32377;52.182;5.398;2022-10-16T06:36:38;12.50;99.90
46652;DHT22;32377;52.182;5.398;2022-10-16T06:39:04;12.50;99.90
46652;DHT22;32377;52.182;5.398;2022-10-16T06:41:30;12.50;99.90
46652;DHT22;32377;52.182;5.398;2022-10-16T06:43:56;12.40;99.90
46652;DHT22;32377;52.182;5.398;2022-10-16T06:46:23;12.50;99.90
46652;DHT22;32377;52.182;5.398;2022-10-16T06:48:49;12.50;99.90
46652;DHT22;32377;52.182;5.398;2022-10-16T06:51:17;12.50;99.90
46652;DHT22;32377;52.182;5.398;2022-10-16T06:53:54;12.50;99.90
46652;DHT22;32377;52.182;5.398;2022-10-16T06:56:24;12.40;99.90
46652;DHT22;32377;52.182;5.398;2022-10-16T06:58:50;12.50;99.90
46652;DHT22;32377;52.182;5.398;2022-10-16T07:01:18;12.50;99.90
46652;DHT22;32377;52.182;5.398;2022-10-16T07:03:45;12.50;99.90
46652;DHT22;32377;52.182;5.398;2022-10-16T07:06:12;12.50;99.90
46652;DHT22;32377;52.182;5.398;2022-10-16T07:08:40;12.50;99.90
46652;DHT22;32377;52.182;5.398;2022-10-16T07:11:12;12.50;99.90
46652;DHT22;32377;52.182;5.398;2022-10-16T07:13:39;12.60;99.90
46652;DHT22;32377;52.182;5.398;2022-10-16T07:16:11;12.60;99.90
46652;DHT22;32377;52.182;5.398;2022-10-16T07:18:37;12.60;99.90
46652;DHT22;32377;52.182;5.398;2022-10-16T07:21:17;12.60;99.90
46652;DHT22;32377;52.182;5.398;2022-10-16T07:23:44;12.70;99.90
46652;DHT22;32377;52.182;5.398;2022-10-16T07:26:10;12.70;99.90
46652;DHT22;32377;52.182;5.398;2022-10-16T07:28:37;12.80;99.90
46652;DHT22;32377;52.182;5.398;2022-10-16T07:31:10;12.90;99.90
46652;DHT22;32377;52.182;5.398;2022-10-16T07:33:37;12.90;99.90
46652;DHT22;32377;52.182;5.398;2022-10-16T07:36:04;12.90;99.90
46652;DHT22;32377;52.182;5.398;2022-10-16T07:38:30;13.00;99.90
46652;DHT22;32377;52.182;5.398;2022-10-16T07:41:00;13.00;99.90
46652;DHT22;32377;52.182;5.398;2022-10-16T07:43:26;13.00;99.90
46652;DHT22;32377;52.182;5.398;2022-10-16T07:45:52;12.90;99.90
46652;DHT22;32377;52.182;5.398;2022-10-16T07:48:19;12.90;99.90
46652;DHT22;32377;52.182;5.398;2022-10-16T07:50:45;12.80;99.90
46652;DHT22;32377;52.182;5.398;2022-10-16T07:53:11;12.80;99.90
46652;DHT22;32377;52.182;5.398;2022-10-16T07:55:37;12.80;99.90
46652;DHT22;32377;52.182;5.398;2022-10-16T07:58:03;12.80;99.90
46652;DHT22;32377;52.182;5.398;2022-10-16T08:00:28;12.80;99.90
46652;DHT22;32377;52.182;5.398;2022-10-16T08:02:54;12.90;99.90
46652;DHT22;32377;52.182;5.398;2022-10-16T08:05:20;13.00;99.90
46652;DHT22;32377;52.182;5.398;2022-10-16T08:07:49;13.10;99.90
46652;DHT22;32377;52.182;5.398;2022-10-16T08:10:19;13.10;99.90
46652;DHT22;32377;52.182;5.398;2022-10-16T08:12:45;13.10;99.90
46652;DHT22;32377;52.182;5.398;2022-10-16T08:15:11;13.20;99.90
46652;DHT22;32377;52.182;5.398;2022-10-16T08:17:37;13.30;99.90
46652;DHT22;32377;52.182;5.398;2022-10-16T08:20:03;13.30;99.90
46652;DHT22;32377;52.182;5.398;2022-10-16T08:22:29;13.40;99.90
46652;DHT22;32377;52.182;5.398;2022-10-16T08:24:54;13.40;99.90
46652;DHT22;32377;52.182;5.398;2022-10-16T08:27:20;13.50;99.90
46652;DHT22;32377;52.182;5.398;2022-10-16T08:29:46;13.60;99.90
46652;DHT22;32377;52.182;5.398;2022-10-16T08:32:11;13.60;99.90
46652;DHT22;32377;52.182;5.398;2022-10-16T08:34:37;13.70;99.90
46652;DHT22;32377;52.182;5.398;2022-10-16T08:37:02;13.70;99.90
46652;DHT22;32377;52.182;5.398;2022-10-16T08:39:28;13.90;99.90
46652;DHT22;32377;52.182;5.398;2022-10-16T08:47:35;14.00;99.90
46652;DHT22;32377;52.182;5.398;2022-10-16T08:50:11;14.10;99.90
46652;DHT22;32377;52.182;5.398;2022-10-16T08:52:42;14.10;99.90
46652;DHT22;32377;52.182;5.398;2022-10-16T08:57:49;14.20;99.90
46652;DHT22;32377;52.182;5.398;2022-10-16T09:00:15;14.30;99.90
46652;DHT22;32377;52.182;5.398;2022-10-16T09:02:59;14.30;99.90
46652;DHT22;32377;52.182;5.398;2022-10-16T09:05:57;14.30;99.90
46652;DHT22;32377;52.182;5.398;2022-10-16T09:14:06;14.50;99.90
46652;DHT22;32377;52.182;5.398;2022-10-16T09:16:44;14.60;99.90
46652;DHT22;32377;52.182;5.398;2022-10-16T09:21:47;14.80;99.90
46652;DHT22;32377;52.182;5.398;2022-10-16T09:24:18;14.80;99.90
46652;DHT22;32377;52.182;5.398;2022-10-16T09:26:45;14.90;99.90
46652;DHT22;32377;52.182;5.398;2022-10-16T09:29:12;15.20;99.90
46652;DHT22;32377;52.182;5.398;2022-10-16T09:31:39;15.40;99.90
46652;DHT22;32377;52.182;5.398;2022-10-16T09:34:05;15.40;99.90
46652;DHT22;32377;52.182;5.398;2022-10-16T09:36:40;15.50;99.90
46652;DHT22;32377;52.182;5.398;2022-10-16T09:39:09;15.70;99.90
46652;DHT22;32377;52.182;5.398;2022-10-16T09:41:41;15.70;99.90
46652;DHT22;32377;52.182;5.398;2022-10-16T09:44:30;15.70;99.90
46652;DHT22;32377;52.182;5.398;2022-10-16T09:47:12;15.80;99.90
46652;DHT22;32377;52.182;5.398;2022-10-16T09:49:38;15.70;99.90
46652;DHT22;32377;52.182;5.398;2022-10-16T09:52:15;15.60;99.90
46652;DHT22;32377;52.182;5.398;2022-10-16T09:54:51;15.60;99.90
46652;DHT22;32377;52.182;5.398;2022-10-16T09:57:17;15.70;99.90
46652;DHT22;32377;52.182;5.398;2022-10-16T09:59:47;15.80;99.90
46652;DHT22;32377;52.182;5.398;2022-10-16T10:02:15;15.70;99.90
46652;DHT22;32377;52.182;5.398;2022-10-16T10:04:52;15.90;99.90
46652;DHT22;32377;52.182;5.398;2022-10-16T10:07:32;16.00;99.90
46652;DHT22;32377;52.182;5.398;2022-10-16T10:09:59;16.10;99.90
46652;DHT22;32377;52.182;5.398;2022-10-16T10:12:31;16.20;99.90
46652;DHT22;32377;52.182;5.398;2022-10-16T10:15:13;16.30;99.90
46652;DHT22;32377;52.182;5.398;2022-10-16T10:17:47;16.40;99.90
46652;DHT22;32377;52.182;5.398;2022-10-16T10:20:29;16.70;99.90
46652;DHT22;32377;52.182;5.398;2022-10-16T10:22:57;16.70;99.90
46652;DHT22;32377;52.182;5.398;2022-10-16T10:36:39;16.40;99.90
46652;DHT22;32377;52.182;5.398;2022-10-16T10:39:20;16.40;99.90
46652;DHT22;32377;52.182;5.398;2022-10-16T10:44:52;16.40;99.90
46652;DHT22;32377;52.182;5.398;2022-10-16T10:50:45;16.30;99.90
46652;DHT22;32377;52.182;5.398;2022-10-16T10:59:42;16.00;99.90
46652;DHT22;32377;52.182;5.398;2022-10-16T11:02:41;16.00;99.90
46652;DHT22;32377;52.182;5.398;2022-10-16T11:08:17;16.40;99.90
46652;DHT22;32377;52.182;5.398;2022-10-16T11:16:17;17.00;99.90
46652;DHT22;32377;52.182;5.398;2022-10-16T11:18:52;17.00;99.90
46652;DHT22;32377;52.182;5.398;2022-10-16T11:21:21;16.90;99.90
46652;DHT22;32377;52.182;5.398;2022-10-16T11:23:57;16.70;99.90
46652;DHT22;32377;52.182;5.398;2022-10-16T11:26:30;16.70;99.90
46652;DHT22;32377;52.182;5.398;2022-10-16T11:28:58;16.70;99.90
46652;DHT22;32377;52.182;5.398;2022-10-16T11:31:34;16.60;99.90
46652;DHT22;32377;52.182;5.398;2022-10-16T11:36:39;16.30;99.90
46652;DHT22;32377;52.182;5.398;2022-10-16T11:39:25;16.20;99.90
46652;DHT22;32377;52.182;5.398;2022-10-16T11:41:55;16.20;99.90
46652;DHT22;32377;52.182;5.398;2022-10-16T11:49:45;16.70;99.90
46652;DHT22;32377;52.182;5.398;2022-10-16T11:52:36;16.80;99.90
46652;DHT22;32377;52.182;5.398;2022-10-16T11:55:24;16.80;99.90
46652;DHT22;32377;52.182;5.398;2022-10-16T11:57:57;16.70;99.90
46652;DHT22;32377;52.182;5.398;2022-10-16T12:00:37;16.70;99.90
46652;DHT22;32377;52.182;5.398;2022-10-16T12:06:25;16.60;99.90
46652;DHT22;32377;52.182;5.398;2022-10-16T12:08:53;16.60;99.90
46652;DHT22;32377;52.182;5.398;2022-10-16T12:11:22;16.70;99.90
46652;DHT22;32377;52.182;5.398;2022-10-16T12:13:48;16.80;99.90
46652;DHT22;32377;52.182;5.398;2022-10-16T12:18:41;16.90;99.90
46652;DHT22;32377;52.182;5.398;2022-10-16T12:21:07;16.70;99.90
46652;DHT22;32377;52.182;5.398;2022-10-16T12:23:51;16.60;99.90
46652;DHT22;32377;52.182;5.398;2022-10-16T12:26:26;16.50;99.90
46652;DHT22;32377;52.182;5.398;2022-10-16T12:28:53;16.30;99.90
46652;DHT22;32377;52.182;5.398;2022-10-16T12:31:19;16.20;99.90
46652;DHT22;32377;52.182;5.398;2022-10-16T12:34:02;16.20;99.90
46652;DHT22;32377;52.182;5.398;2022-10-16T12:36:33;16.20;99.90
46652;DHT22;32377;52.182;5.398;2022-10-16T12:39:00;16.30;99.90
46652;DHT22;32377;52.182;5.398;2022-10-16T12:41:29;16.60;99.90
46652;DHT22;32377;52.182;5.398;2022-10-16T12:43:55;16.80;99.90
46652;DHT22;32377;52.182;5.398;2022-10-16T12:46:39;17.00;99.90
46652;DHT22;32377;52.182;5.398;2022-10-16T12:51:39;17.00;99.90
46652;DHT22;32377;52.182;5.398;2022-10-16T12:54:20;17.00;99.90
46652;DHT22;32377;52.182;5.398;2022-10-16T12:59:57;17.30;99.90
46652;DHT22;32377;52.182;5.398;2022-10-16T13:08:02;17.30;99.90
46652;DHT22;32377;52.182;5.398;2022-10-16T13:30:18;17.30;99.90
46652;DHT22;32377;52.182;5.398;2022-10-16T13:32:49;17.20;99.90
46652;DHT22;32377;52.182;5.398;2022-10-16T13:35:30;17.30;99.90
46652;DHT22;32377;52.182;5.398;2022-10-16T13:38:12;17.20;99.90
46652;DHT22;32377;52.182;5.398;2022-10-16T13:40:52;17.10;99.90
46652;DHT22;32377;52.182;5.398;2022-10-16T13:43:21;17.20;99.90
46652;DHT22;32377;52.182;5.398;2022-10-16T13:46:17;17.20;99.90
46652;DHT22;32377;52.182;5.398;2022-10-16T13:48:44;17.20;99.90
46652;DHT22;32377;52.182;5.398;2022-10-16T13:51:17;17.20;99.90
46652;DHT22;32377;52.182;5.398;2022-10-16T13:53:44;17.30;99.90
46652;DHT22;32377;52.182;5.398;2022-10-16T13:56:19;17.30;99.90
46652;DHT22;32377;52.182;5.398;2022-10-16T13:58:46;17.30;99.90
46652;DHT22;32377;52.182;5.398;2022-10-16T14:01:22;17.30;99.90
46652;DHT22;32377;52.182;5.398;2022-10-16T14:03:49;17.30;99.90
46652;DHT22;32377;52.182;5.398;2022-10-16T14:06:18;17.20;99.90
46652;DHT22;32377;52.182;5.398;2022-10-16T14:08:50;17.20;99.90
46652;DHT22;32377;52.182;5.398;2022-10-16T14:11:22;17.20;99.90
46652;DHT22;32377;52.182;5.398;2022-10-16T14:13:49;17.20;99.90
46652;DHT22;32377;52.182;5.398;2022-10-16T14:16:21;17.30;99.90
46652;DHT22;32377;52.182;5.398;2022-10-16T14:21:19;17.40;99.90
46652;DHT22;32377;52.182;5.398;2022-10-16T14:23:45;17.40;99.90
46652;DHT22;32377;52.182;5.398;2022-10-16T14:28:39;17.40;99.90
46652;DHT22;32377;52.182;5.398;2022-10-16T14:31:37;17.30;99.90
46652;DHT22;32377;52.182;5.398;2022-10-16T14:34:03;17.30;99.90
46652;DHT22;32377;52.182;5.398;2022-10-16T14:36:33;17.30;99.90
46652;DHT22;32377;52.182;5.398;2022-10-16T14:39:03;17.20;99.90
46652;DHT22;32377;52.182;5.398;2022-10-16T14:41:31;17.30;99.90
46652;DHT22;32377;52.182;5.398;2022-10-16T14:44:04;17.20;99.90
46652;DHT22;32377;52.182;5.398;2022-10-16T14:46:35;17.20;99.90
46652;DHT22;32377;52.182;5.398;2022-10-16T14:49:16;17.20;99.90
46652;DHT22;32377;52.182;5.398;2022-10-16T14:51:42;17.10;99.90
46652;DHT22;32377;52.182;5.398;2022-10-16T14:54:10;17.10;99.90
46652;DHT22;32377;52.182;5.398;2022-10-16T14:59:30;17.20;99.90
46652;DHT22;32377;52.182;5.398;2022-10-16T15:01:57;17.10;99.90
46652;DHT22;32377;52.182;5.398;2022-10-16T15:04:23;17.00;99.90
46652;DHT22;32377;52.182;5.398;2022-10-16T15:06:48;17.00;99.90
46652;DHT22;32377;52.182;5.398;2022-10-16T15:09:14;16.90;99.90
46652;DHT22;32377;52.182;5.398;2022-10-16T15:11:39;16.90;99.90
46652;DHT22;32377;52.182;5.398;2022-10-16T15:14:05;16.90;99.90
46652;DHT22;32377;52.182;5.398;2022-10-16T15:16:31;16.80;99.90
46652;DHT22;32377;52.182;5.398;2022-10-16T15:18:57;16.80;99.90
46652;DHT22;32377;52.182;5.398;2022-10-16T15:21:31;16.80;99.90
46652;DHT22;32377;52.182;5.398;2022-10-16T15:23:58;16.70;99.90
46652;DHT22;32377;52.182;5.398;2022-10-16T15:26:25;16.70;99.90
46652;DHT22;32377;52.182;5.398;2022-10-16T15:28:51;16.60;99.90
46652;DHT22;32377;52.182;5.398;2022-10-16T15:31:17;16.50;99.90
46652;DHT22;32377;52.182;5.398;2022-10-16T15:33:43;16.50;99.90
46652;DHT22;32377;52.182;5.398;2022-10-16T15:36:08;16.40;99.90
46652;DHT22;32377;52.182;5.398;2022-10-16T15:38:34;16.40;99.90
46652;DHT22;32377;52.182;5.398;2022-10-16T15:41:00;16.30;99.90
46652;DHT22;32377;52.182;5.398;2022-10-16T15:43:26;16.30;99.90
46652;DHT22;32377;52.182;5.398;2022-10-16T15:46:00;16.20;99.90
46652;DHT22;32377;52.182;5.398;2022-10-16T15:48:27;16.10;99.90
46652;DHT22;32377;52.182;5.398;2022-10-16T15:50:52;16.00;99.90
46652;DHT22;32377;52.182;5.398;2022-10-16T15:53:18;16.00;99.90
46652;DHT22;32377;52.182;5.398;2022-10-16T15:55:43;16.00;99.90
46652;DHT22;32377;52.182;5.398;2022-10-16T15:58:09;16.00;99.90
46652;DHT22;32377;52.182;5.398;2022-10-16T16:00:34;15.90;99.90
46652;DHT22;32377;52.182;5.398;2022-10-16T16:03:00;15.80;99.90
46652;DHT22;32377;52.182;5.398;2022-10-16T16:05:26;15.80;99.90
46652;DHT22;32377;52.182;5.398;2022-10-16T16:07:52;15.70;99.90
46652;DHT22;32377;52.182;5.398;2022-10-16T16:10:18;15.70;99.90
46652;DHT22;32377;52.182;5.398;2022-10-16T16:12:47;15.60;99.90
46652;DHT22;32377;52.182;5.398;2022-10-16T16:15:17;15.60;99.90
46652;DHT22;32377;52.182;5.398;2022-10-16T16:17:43;15.60;99.90
46652;DHT22;32377;52.182;5.398;2022-10-16T16:20:10;15.50;99.90
46652;DHT22;32377;52.182;5.398;2022-10-16T16:22:36;15.50;99.90
46652;DHT22;32377;52.182;5.398;2022-10-16T16:25:01;15.40;99.90
46652;DHT22;32377;52.182;5.398;2022-10-16T16:27:27;15.40;99.90
46652;DHT22;32377;52.182;5.398;2022-10-16T16:29:55;15.30;99.90
46652;DHT22;32377;52.182;5.398;2022-10-16T16:32:21;15.30;99.90
46652;DHT22;32377;52.182;5.398;2022-10-16T16:34:46;15.30;99.90
46652;DHT22;32377;52.182;5.398;2022-10-16T16:37:12;15.20;99.90
46652;DHT22;32377;52.182;5.398;2022-10-16T16:39:38;15.20;99.90
46652;DHT22;32377;52.182;5.398;2022-10-16T16:42:04;15.10;99.90
46652;DHT22;32377;52.182;5.398;2022-10-16T16:44:32;15.10;99.90
46652;DHT22;32377;52.182;5.398;2022-10-16T16:46:58;14.90;99.90
46652;DHT22;32377;52.182;5.398;2022-10-16T16:49:23;14.80;99.90
46652;DHT22;32377;52.182;5.398;2022-10-16T16:51:49;14.80;99.90
46652;DHT22;32377;52.182;5.398;2022-10-16T16:54:15;14.70;99.90
46652;DHT22;32377;52.182;5.398;2022-10-16T16:56:41;14.60;99.90
46652;DHT22;32377;52.182;5.398;2022-10-16T16:59:17;14.60;99.90
46652;DHT22;32377;52.182;5.398;2022-10-16T17:01:44;14.60;99.90
46652;DHT22;32377;52.182;5.398;2022-10-16T17:04:09;14.50;99.90
46652;DHT22;32377;52.182;5.398;2022-10-16T17:06:36;14.50;99.90
46652;DHT22;32377;52.182;5.398;2022-10-16T17:09:02;14.50;99.90
46652;DHT22;32377;52.182;5.398;2022-10-16T17:11:29;14.50;99.90
46652;DHT22;32377;52.182;5.398;2022-10-16T17:13:56;14.40;99.90
46652;DHT22;32377;52.182;5.398;2022-10-16T17:16:25;14.40;99.90
46652;DHT22;32377;52.182;5.398;2022-10-16T17:18:51;14.40;99.90
46652;DHT22;32377;52.182;5.398;2022-10-16T17:21:18;14.30;99.90
46652;DHT22;32377;52.182;5.398;2022-10-16T17:23:44;14.30;99.90
46652;DHT22;32377;52.182;5.398;2022-10-16T17:26:13;14.30;99.90
46652;DHT22;32377;52.182;5.398;2022-10-16T17:28:40;14.30;99.90
46652;DHT22;32377;52.182;5.398;2022-10-16T17:31:14;14.40;99.90
46652;DHT22;32377;52.182;5.398;2022-10-16T17:33:40;14.30;99.90